Wide Ruins, Arizona
Current Conditions -  °F | °C
As of 3:54 PM on Wednesday 26 Nov 2014 (Local Time) from KSJN Reporting Station
Clear Clear  
Wind Chill: 58°   Ceiling: Unl
Heat Index: 58°   Visibility: 10mi
Dew Point: 18°   Wind: 9mph
Humidity: 21%   Direction: 310°NW
Pressure: 30.38"   Gusts: NA
Location:  34.9472°N, 109.473°W
Report Text: KSJN 262254Z AUTO 31008KT 10SM CLR 14/M08 A3038 RMK AO2 SLP268 T01441078
Loading
Personal Weather Stations






























Interactive Weather Map New forecast layout! Learn more

10-Day Weather Forecast

Advertisements
Track Severe Weather on mobile